Terminal Aerodrome Forecast
Issued by NWS

Home | Current Version | Previous Version | Text Only | Print | Product List | Glossary On
Versions: 1 2 3 4 5 6 7 8 9 10 11 12 13 14 15 16 17
000
FTUS42 KFFC 240527
TAFFTY
TAF
KFTY 240527Z 2406/2506 00000KT P6SM SCT250
      TEMPO 2409/2412 5SM BR
     FM241600 08008KT P6SM SCT050
     FM250100 00000KT P6SM SCT250=

USA.gov is the U.S. government's official web portal to all federal, state and local government web resources and services.